Terminal Aerodrome Forecast
Issued by NWS

Home | Current Version | Previous Version | Graphics & Text | Print | Product List | Glossary On
Versions: 1 2 3 4 5 6 7 8 9 10 11 12 13 14 15 16 17 18 19 20 21 22 23 24 25 26 27 28 29 30
000
FTUS43 KLOT 280520
TAFGYY
TAF
KGYY 280520Z 2806/2906 01008KT 6SM BR SCT006 OVC015
     FM280900 36010KT 6SM BR OVC007
     FM281600 01012KT P6SM OVC012
     FM282100 01011KT P6SM BKN020
     FM290000 02008KT P6SM FEW025 SCT035 BKN200=

USA.gov is the U.S. government's official web portal to all federal, state and local government web resources and services.